createdAt,value
2022-10-29T00:00:45.677Z,8.97
2022-10-29T00:03:12.359Z,9.02
2022-10-29T00:05:39.083Z,8.98
2022-10-29T00:08:05.757Z,8.95
2022-10-29T00:10:32.645Z,8.96
2022-10-29T00:13:03.594Z,8.95
2022-10-29T00:15:30.248Z,8.87
2022-10-29T00:17:57.167Z,8.88
2022-10-29T00:20:24.160Z,8.83
2022-10-29T00:22:54.371Z,8.83
2022-10-29T00:25:21.576Z,8.83
2022-10-29T00:27:48.201Z,8.85
2022-10-29T00:30:15.016Z,8.85
2022-10-29T00:32:41.629Z,8.88
2022-10-29T00:35:08.721Z,8.88
2022-10-29T00:37:35.997Z,8.88
2022-10-29T00:40:03.518Z,8.98
2022-10-29T00:42:30.180Z,8.95
2022-10-29T00:44:56.885Z,8.92
2022-10-29T00:47:34.428Z,8.91
2022-10-29T00:50:08.244Z,8.88
2022-10-29T00:52:39.814Z,8.91
2022-10-29T00:55:09.025Z,8.86
2022-10-29T00:57:42.058Z,8.85
2022-10-29T01:00:09.508Z,8.83
2022-10-29T01:02:38.315Z,8.82
2022-10-29T01:05:05.899Z,8.79
2022-10-29T01:07:32.916Z,8.73
2022-10-29T01:09:59.742Z,8.77
2022-10-29T01:12:51.275Z,8.72
2022-10-29T01:15:29.106Z,8.71
2022-10-29T01:18:19.829Z,8.73
2022-10-29T01:21:17.438Z,8.69
2022-10-29T01:24:19.727Z,8.70
2022-10-29T01:27:10.662Z,8.66
2022-10-29T01:30:07.896Z,8.66
2022-10-29T01:32:50.042Z,8.67
2022-10-29T01:35:40.998Z,8.66
2022-10-29T01:38:24.189Z,8.63
2022-10-29T01:41:15.141Z,8.64
2022-10-29T01:43:50.265Z,8.71
2022-10-29T01:46:23.484Z,8.72
2022-10-29T01:48:56.288Z,8.74
2022-10-29T01:51:27.737Z,8.73
2022-10-29T01:53:55.550Z,8.70
2022-10-29T01:56:22.149Z,8.69
2022-10-29T01:58:52.571Z,8.70
2022-10-29T02:01:48.893Z,8.75
2022-10-29T02:04:15.588Z,8.70
2022-10-29T02:07:04.191Z,8.70
2022-10-29T02:09:56.255Z,8.67
2022-10-29T02:12:31.650Z,8.69
2022-10-29T02:15:19.719Z,8.70
2022-10-29T02:17:46.539Z,8.69
2022-10-29T02:20:14.687Z,8.66
2022-10-29T02:22:41.437Z,8.61
2022-10-29T02:25:09.493Z,8.57
2022-10-29T02:27:36.179Z,8.53
2022-10-29T02:30:03.355Z,8.54
2022-10-29T02:32:29.996Z,8.56
2022-10-29T02:34:56.603Z,8.57
2022-10-29T02:37:23.234Z,8.53
2022-10-29T02:39:49.851Z,8.53
2022-10-29T02:42:17.117Z,8.51
2022-10-29T02:44:43.764Z,8.48
2022-10-29T02:47:10.366Z,8.50
2022-10-29T02:49:37.043Z,8.51
2022-10-29T02:52:03.877Z,8.52
2022-10-29T02:54:31.187Z,8.48
2022-10-29T02:56:57.839Z,8.45
2022-10-29T02:59:24.554Z,8.46
2022-10-29T03:01:51.270Z,8.46
2022-10-29T03:04:17.959Z,8.44
2022-10-29T03:06:44.624Z,8.44
2022-10-29T03:09:11.322Z,8.52
2022-10-29T03:11:37.915Z,8.47
2022-10-29T03:14:04.594Z,8.45
2022-10-29T03:16:31.180Z,8.50
2022-10-29T03:18:57.779Z,8.49
2022-10-29T03:21:24.476Z,8.44
2022-10-29T03:23:51.084Z,8.41
2022-10-29T03:26:17.671Z,8.38
2022-10-29T03:31:16.013Z,8.39
2022-10-29T03:33:42.657Z,8.40
2022-10-29T03:36:09.569Z,8.37
2022-10-29T03:38:36.270Z,8.42
2022-10-29T03:41:08.563Z,8.40
2022-10-29T03:43:39.658Z,8.41
2022-10-29T03:46:07.066Z,8.39
2022-10-29T03:48:34.321Z,8.39
2022-10-29T03:51:05.952Z,8.40
2022-10-29T03:53:34.389Z,8.42
2022-10-29T03:56:01.421Z,8.36
2022-10-29T03:58:28.454Z,8.37
2022-10-29T04:01:02.583Z,8.41
2022-10-29T04:03:30.847Z,8.33
2022-10-29T04:05:59.226Z,8.35
2022-10-29T04:08:26.177Z,8.33
2022-10-29T04:10:53.684Z,8.33
2022-10-29T04:13:20.629Z,8.35
2022-10-29T04:15:47.551Z,8.31
2022-10-29T04:18:14.561Z,8.29
2022-10-29T04:21:29.300Z,8.24
2022-10-29T04:29:02.413Z,8.25
2022-10-29T04:31:29.086Z,8.30
2022-10-29T04:33:55.916Z,8.30
2022-10-29T04:36:22.547Z,8.32
2022-10-29T04:38:50.415Z,8.29
2022-10-29T04:41:17.152Z,8.27
2022-10-29T04:43:43.811Z,8.26
2022-10-29T04:46:11.342Z,8.27
2022-10-29T04:48:38.081Z,8.27
2022-10-29T04:51:05.260Z,8.31
2022-10-29T04:53:32.243Z,8.29
2022-10-29T04:56:05.720Z,8.34
2022-10-29T04:58:32.389Z,8.40
2022-10-29T05:01:03.180Z,8.36
2022-10-29T05:03:29.949Z,8.33
2022-10-29T05:05:56.822Z,8.32
2022-10-29T05:08:23.537Z,8.33
2022-10-29T05:10:50.348Z,8.31
2022-10-29T05:13:16.957Z,8.30
2022-10-29T05:15:43.614Z,8.30
2022-10-29T05:18:10.493Z,8.32
2022-10-29T05:20:37.092Z,8.26
2022-10-29T05:23:06.904Z,8.21
2022-10-29T05:25:35.440Z,8.18
2022-10-29T05:28:03.272Z,8.14
2022-10-29T05:30:30.002Z,8.15
2022-10-29T05:32:56.997Z,8.14
2022-10-29T05:35:24.531Z,8.14
2022-10-29T05:37:55.833Z,8.15
2022-10-29T05:40:23.988Z,8.13
2022-10-29T05:42:50.905Z,8.17
2022-10-29T05:45:18.000Z,8.13
2022-10-29T05:47:45.100Z,8.16
2022-10-29T05:50:12.459Z,8.19
2022-10-29T05:52:39.420Z,8.17
2022-10-29T05:55:06.948Z,8.21
2022-10-29T05:57:33.557Z,8.24
2022-10-29T06:00:00.651Z,8.25
2022-10-29T06:02:27.409Z,8.27
2022-10-29T06:04:54.170Z,8.27
2022-10-29T06:07:20.818Z,8.35
2022-10-29T06:09:47.480Z,8.37
2022-10-29T06:12:14.167Z,8.41
2022-10-29T06:14:40.797Z,8.45
2022-10-29T06:17:07.406Z,8.46
2022-10-29T06:19:34.121Z,8.49
2022-10-29T06:22:00.847Z,8.54
2022-10-29T06:24:27.781Z,8.59
2022-10-29T06:26:54.832Z,8.69
2022-10-29T06:29:21.465Z,8.73
2022-10-29T06:31:48.111Z,8.81
2022-10-29T06:34:15.046Z,8.95
2022-10-29T06:36:41.757Z,9.22
2022-10-29T06:39:08.458Z,9.49
2022-10-29T06:41:35.084Z,9.79
2022-10-29T06:44:01.807Z,10.01
2022-10-29T06:46:28.539Z,10.20
2022-10-29T06:48:55.312Z,10.43
2022-10-29T06:53:54.933Z,10.65
2022-10-29T06:56:22.012Z,10.66
2022-10-29T06:58:48.686Z,10.69
2022-10-29T07:01:15.367Z,10.93
2022-10-29T07:03:42.072Z,11.13
2022-10-29T07:06:08.781Z,11.34
2022-10-29T07:08:35.483Z,11.49
2022-10-29T07:11:03.033Z,11.58
2022-10-29T07:13:29.725Z,11.74
2022-10-29T07:15:56.437Z,11.93
2022-10-29T07:18:23.051Z,12.02
2022-10-29T07:20:49.733Z,12.24
2022-10-29T07:23:16.402Z,12.25
2022-10-29T07:25:43.119Z,12.33
2022-10-29T07:28:18.387Z,12.28
2022-10-29T07:30:45.479Z,12.47
2022-10-29T07:33:12.443Z,12.73
2022-10-29T07:35:39.285Z,12.86
2022-10-29T07:38:10.671Z,12.80
2022-10-29T07:40:40.388Z,12.61
2022-10-29T07:43:07.243Z,12.73
2022-10-29T07:45:34.249Z,13.07
2022-10-29T07:48:03.186Z,13.12
2022-10-29T07:50:31.554Z,13.19
2022-10-29T07:53:02.331Z,13.23
2022-10-29T07:58:02.453Z,13.42
2022-10-29T08:00:38.092Z,13.63
2022-10-29T08:03:05.611Z,13.64
2022-10-29T08:05:32.886Z,13.76
2022-10-29T08:08:00.325Z,13.97
2022-10-29T08:10:28.596Z,14.14
2022-10-29T08:12:57.974Z,14.30
2022-10-29T08:15:26.514Z,14.48
2022-10-29T08:17:53.274Z,14.52
2022-10-29T08:20:21.491Z,14.65
2022-10-29T08:22:48.167Z,14.88
2022-10-29T08:25:15.746Z,15.19
2022-10-29T08:27:43.283Z,15.43
2022-10-29T08:30:12.554Z,15.75
2022-10-29T08:32:47.111Z,15.92
2022-10-29T08:35:14.652Z,16.20
2022-10-29T08:37:45.148Z,16.35
2022-10-29T08:40:22.968Z,16.50
2022-10-29T08:42:56.507Z,16.64
2022-10-29T08:45:26.102Z,16.82
2022-10-29T08:48:11.266Z,17.09
2022-10-29T08:50:41.384Z,17.14
2022-10-29T08:53:39.803Z,17.14
2022-10-29T08:56:20.194Z,17.40
2022-10-29T08:59:01.361Z,17.36
2022-10-29T09:01:28.114Z,17.55
2022-10-29T09:03:55.077Z,17.68
2022-10-29T09:06:33.681Z,17.91
2022-10-29T09:09:23.686Z,18.04
2022-10-29T09:12:19.639Z,18.13
2022-10-29T09:14:56.957Z,18.41
2022-10-29T09:17:57.232Z,18.59
2022-10-29T09:20:50.441Z,18.92
2022-10-29T09:23:35.025Z,19.11
2022-10-29T09:26:05.028Z,19.26
2022-10-29T09:28:53.748Z,19.17
2022-10-29T09:31:26.947Z,19.11
2022-10-29T09:33:57.778Z,19.12
2022-10-29T09:36:27.466Z,19.26
2022-10-29T09:39:02.563Z,19.24
2022-10-29T09:41:34.238Z,19.33
2022-10-29T09:44:13.213Z,19.32
2022-10-29T09:46:57.415Z,19.35
2022-10-29T09:49:35.917Z,19.31
2022-10-29T09:52:10.136Z,19.33
2022-10-29T09:54:36.962Z,19.37
2022-10-29T09:57:06.960Z,19.54
2022-10-29T09:59:38.841Z,19.74
2022-10-29T10:02:28.477Z,19.85
2022-10-29T10:05:00.444Z,19.95
2022-10-29T10:07:27.562Z,19.99
2022-10-29T10:09:55.603Z,19.99
2022-10-29T10:12:28.625Z,20.16
2022-10-29T10:15:29.241Z,20.25
2022-10-29T10:17:57.784Z,20.38
2022-10-29T10:20:41.197Z,20.52
2022-10-29T10:23:38.913Z,20.75
2022-10-29T10:26:05.679Z,20.83
2022-10-29T10:28:35.527Z,20.74
2022-10-29T10:31:16.141Z,20.73
2022-10-29T10:33:54.573Z,20.72
2022-10-29T10:36:25.046Z,20.75
2022-10-29T10:39:01.210Z,20.74
2022-10-29T10:41:30.810Z,20.81
2022-10-29T10:44:00.979Z,20.80
2022-10-29T10:46:42.068Z,20.80
2022-10-29T10:49:11.725Z,20.78
2022-10-29T10:51:43.101Z,20.46
2022-10-29T10:54:31.323Z,20.67
2022-10-29T10:57:01.292Z,20.72
2022-10-29T10:59:46.311Z,20.84
2022-10-29T11:02:31.700Z,20.88
2022-10-29T11:05:11.997Z,20.90
2022-10-29T11:07:42.594Z,20.98
2022-10-29T11:10:12.749Z,20.97
2022-10-29T11:12:44.436Z,20.80
2022-10-29T11:15:22.065Z,20.63
2022-10-29T11:17:54.827Z,20.63
2022-10-29T11:20:28.989Z,20.56
2022-10-29T11:23:28.910Z,20.60
2022-10-29T11:26:05.684Z,20.26
2022-10-29T11:28:38.608Z,20.03
2022-10-29T11:31:11.401Z,19.87
2022-10-29T11:33:49.340Z,19.80
2022-10-29T11:36:23.661Z,19.72
2022-10-29T11:38:57.481Z,19.79
2022-10-29T11:41:34.475Z,19.75
2022-10-29T11:44:01.155Z,19.69
2022-10-29T11:47:01.595Z,19.63
2022-10-29T11:49:55.819Z,19.61
2022-10-29T11:52:35.804Z,19.54
2022-10-29T11:55:05.658Z,19.50
2022-10-29T11:57:49.997Z,19.47
2022-10-29T12:00:22.152Z,19.38
2022-10-29T12:03:16.054Z,19.34
2022-10-29T12:06:27.381Z,19.28
2022-10-29T12:09:15.821Z,19.25
2022-10-29T12:11:54.384Z,19.26
2022-10-29T12:14:37.032Z,19.21
2022-10-29T12:17:34.452Z,19.18
2022-10-29T12:20:09.948Z,19.09
2022-10-29T12:23:11.966Z,18.99
2022-10-29T12:26:05.494Z,18.90
2022-10-29T12:28:55.842Z,18.81
2022-10-29T12:31:26.559Z,18.74
2022-10-29T12:33:59.575Z,18.71
2022-10-29T12:36:38.510Z,18.70
2022-10-29T12:39:14.416Z,18.67
2022-10-29T12:41:51.587Z,18.63
2022-10-29T12:45:03.030Z,18.61
2022-10-29T12:48:02.811Z,18.58
2022-10-29T12:50:58.056Z,18.65
2022-10-29T12:53:32.962Z,18.68
2022-10-29T12:55:59.830Z,18.73
2022-10-29T12:58:49.303Z,18.66
2022-10-29T13:01:57.528Z,18.60
2022-10-29T13:04:27.695Z,18.69
2022-10-29T13:07:03.599Z,19.00
2022-10-29T13:09:36.248Z,19.06
2022-10-29T13:12:05.137Z,18.99
2022-10-29T13:14:50.806Z,18.99
2022-10-29T13:17:34.174Z,19.10
2022-10-29T13:20:21.672Z,19.23
2022-10-29T13:22:59.905Z,19.23
2022-10-29T13:25:36.221Z,19.25
2022-10-29T13:28:08.942Z,19.39
2022-10-29T13:30:40.948Z,19.53
2022-10-29T13:33:26.461Z,19.63
2022-10-29T13:35:57.865Z,19.57
2022-10-29T13:38:52.383Z,19.52
2022-10-29T13:41:48.598Z,19.61
2022-10-29T13:44:24.242Z,19.63
2022-10-29T13:47:04.174Z,19.62
2022-10-29T13:49:44.757Z,19.53
2022-10-29T13:52:22.276Z,19.82
2022-10-29T13:55:06.438Z,19.64
2022-10-29T13:57:45.500Z,19.43
2022-10-29T14:00:12.061Z,19.34
2022-10-29T14:03:04.512Z,19.18
2022-10-29T14:05:50.591Z,18.99
2022-10-29T14:08:35.083Z,19.15
2022-10-29T14:11:09.279Z,19.02
2022-10-29T14:14:01.337Z,18.85
2022-10-29T14:16:31.245Z,18.87
2022-10-29T14:18:57.878Z,18.72
2022-10-29T14:21:37.078Z,18.61
2022-10-29T14:24:09.490Z,18.50
2022-10-29T14:26:41.479Z,18.55
2022-10-29T14:29:20.184Z,18.61
2022-10-29T14:32:19.239Z,18.49
2022-10-29T14:34:49.366Z,18.29
2022-10-29T14:37:37.187Z,18.25
2022-10-29T14:40:13.991Z,18.18
2022-10-29T14:42:45.205Z,18.09
2022-10-29T14:45:25.143Z,17.92
2022-10-29T14:47:55.592Z,17.80
2022-10-29T14:50:25.574Z,17.73
2022-10-29T14:52:59.150Z,17.63
2022-10-29T14:55:36.786Z,17.52
2022-10-29T14:58:05.561Z,17.48
2022-10-29T15:00:37.187Z,17.41
2022-10-29T15:03:06.902Z,17.27
2022-10-29T15:05:36.527Z,17.18
2022-10-29T15:08:08.988Z,17.09
2022-10-29T15:10:56.824Z,17.05
2022-10-29T15:13:31.500Z,16.95
2022-10-29T15:16:08.375Z,16.91
2022-10-29T15:18:37.702Z,16.88
2022-10-29T15:21:05.808Z,16.80
2022-10-29T15:23:35.648Z,16.77
2022-10-29T15:26:03.656Z,16.70
2022-10-29T15:28:36.399Z,16.59
2022-10-29T15:31:04.093Z,16.56
2022-10-29T15:33:32.063Z,16.42
2022-10-29T15:36:01.710Z,16.32
2022-10-29T15:38:52.206Z,16.26
2022-10-29T15:41:43.960Z,16.23
2022-10-29T15:44:38.931Z,16.14
2022-10-29T15:47:28.131Z,15.99
2022-10-29T15:49:55.758Z,15.80
2022-10-29T15:52:33.438Z,15.72
2022-10-29T15:55:01.546Z,15.69
2022-10-29T15:57:28.180Z,15.53
2022-10-29T15:59:57.443Z,15.38
2022-10-29T16:02:25.647Z,15.38
2022-10-29T16:04:52.303Z,15.30
2022-10-29T16:07:19.049Z,15.27
2022-10-29T16:09:49.479Z,15.24
2022-10-29T16:12:16.295Z,15.09
2022-10-29T16:14:43.050Z,14.93
2022-10-29T16:17:18.836Z,14.89
2022-10-29T16:19:45.676Z,14.78
2022-10-29T16:22:19.328Z,14.62
2022-10-29T16:24:46.002Z,14.54
2022-10-29T16:27:18.505Z,14.52
2022-10-29T16:29:47.186Z,14.55
2022-10-29T16:32:16.566Z,14.46
2022-10-29T16:34:44.080Z,14.37
2022-10-29T16:37:16.597Z,14.35
2022-10-29T16:39:43.952Z,14.33
2022-10-29T16:42:29.810Z,14.29
2022-10-29T16:44:56.709Z,14.29
2022-10-29T16:47:23.479Z,14.24
2022-10-29T16:49:50.244Z,14.11
2022-10-29T16:52:20.962Z,14.05
2022-10-29T16:54:50.344Z,14.02
2022-10-29T16:57:17.022Z,13.98
2022-10-29T16:59:43.649Z,13.84
2022-10-29T17:02:11.528Z,13.81
2022-10-29T17:04:38.248Z,13.83
2022-10-29T17:07:04.917Z,13.85
2022-10-29T17:09:35.355Z,13.80
2022-10-29T17:12:02.486Z,13.77
2022-10-29T17:14:29.201Z,13.74
2022-10-29T17:16:57.298Z,13.75
2022-10-29T17:19:24.237Z,13.74
2022-10-29T17:21:51.092Z,13.74
2022-10-29T17:24:17.787Z,13.74
2022-10-29T17:26:44.597Z,13.73
2022-10-29T17:29:11.363Z,13.73
2022-10-29T17:31:38.019Z,13.71
2022-10-29T17:34:04.785Z,13.69
2022-10-29T17:36:31.951Z,13.73
2022-10-29T17:38:58.548Z,13.71
2022-10-29T17:41:25.321Z,13.73
2022-10-29T17:43:51.984Z,13.74
2022-10-29T17:46:18.647Z,13.76
2022-10-29T17:48:45.349Z,13.72
2022-10-29T17:51:11.944Z,13.70
2022-10-29T17:53:39.336Z,13.68
2022-10-29T17:56:06.367Z,13.68
2022-10-29T17:58:33.152Z,13.62
2022-10-29T18:01:05.369Z,13.62
2022-10-29T18:03:32.248Z,13.61
2022-10-29T18:06:03.664Z,13.62
2022-10-29T18:08:30.674Z,13.57
2022-10-29T18:11:20.351Z,13.59
2022-10-29T18:13:48.467Z,13.55
2022-10-29T18:16:23.562Z,13.45
2022-10-29T18:19:02.197Z,13.20
2022-10-29T18:21:30.860Z,13.12
2022-10-29T18:23:58.207Z,13.00
2022-10-29T18:26:29.059Z,12.92
2022-10-29T18:28:56.480Z,12.91
2022-10-29T18:31:24.928Z,12.92
2022-10-29T18:33:51.808Z,12.87
2022-10-29T18:36:18.714Z,12.81
2022-10-29T18:38:52.818Z,12.80
2022-10-29T18:41:19.818Z,12.82
2022-10-29T18:43:46.811Z,12.84
2022-10-29T18:46:13.618Z,12.83
2022-10-29T18:48:42.164Z,12.90
2022-10-29T18:51:11.684Z,12.88
2022-10-29T18:53:38.840Z,12.86
2022-10-29T18:56:11.150Z,12.81
2022-10-29T18:58:38.066Z,12.77
2022-10-29T19:01:10.193Z,12.74
2022-10-29T19:03:37.770Z,12.78
2022-10-29T19:06:13.404Z,12.74
2022-10-29T19:08:42.590Z,12.70
2022-10-29T19:11:14.907Z,12.71
2022-10-29T19:13:41.771Z,12.70
2022-10-29T19:16:11.925Z,12.65
2022-10-29T19:18:40.115Z,12.56
2022-10-29T19:21:12.031Z,12.40
2022-10-29T19:23:39.519Z,12.28
2022-10-29T19:26:14.858Z,12.22
2022-10-29T19:28:42.445Z,12.17
2022-10-29T19:31:22.531Z,12.16
2022-10-29T19:33:51.323Z,12.12
2022-10-29T19:36:19.238Z,12.00
2022-10-29T19:38:46.619Z,11.90
2022-10-29T19:41:13.730Z,11.84
2022-10-29T19:43:40.686Z,11.85
2022-10-29T19:46:09.464Z,11.76
2022-10-29T19:48:36.486Z,11.68
2022-10-29T19:51:03.345Z,11.67
2022-10-29T19:53:30.432Z,11.59
2022-10-29T19:55:57.218Z,11.51
2022-10-29T19:58:26.136Z,11.46
2022-10-29T20:00:53.739Z,11.50
2022-10-29T20:03:20.927Z,11.51
2022-10-29T20:05:47.633Z,11.52
2022-10-29T20:08:16.272Z,11.58
2022-10-29T20:10:43.549Z,11.60
2022-10-29T20:13:10.635Z,11.60
2022-10-29T20:15:40.071Z,11.61
2022-10-29T20:18:06.922Z,11.61
2022-10-29T20:20:33.659Z,11.61
2022-10-29T20:23:00.988Z,11.58
2022-10-29T20:25:28.560Z,11.56
2022-10-29T20:27:55.316Z,11.60
2022-10-29T20:30:22.235Z,11.61
2022-10-29T20:32:49.740Z,11.59
2022-10-29T20:35:17.450Z,11.60
2022-10-29T20:37:44.099Z,11.56
2022-10-29T20:40:11.855Z,11.53
2022-10-29T20:42:38.844Z,11.52
2022-10-29T20:45:06.082Z,11.52
2022-10-29T20:47:32.728Z,11.48
2022-10-29T20:49:59.390Z,11.51
2022-10-29T20:52:26.088Z,11.49
2022-10-29T20:54:52.705Z,11.48
2022-10-29T20:57:19.341Z,11.49
2022-10-29T20:59:46.183Z,11.50
2022-10-29T21:02:12.961Z,11.46
2022-10-29T21:04:39.688Z,11.44
2022-10-29T21:07:07.850Z,11.38
2022-10-29T21:09:34.589Z,11.35
2022-10-29T21:12:01.317Z,11.32
2022-10-29T21:14:29.663Z,11.31
2022-10-29T21:16:56.413Z,11.29
2022-10-29T21:19:23.135Z,11.26
2022-10-29T21:21:49.860Z,11.23
2022-10-29T21:24:17.868Z,11.25
2022-10-29T21:26:44.500Z,11.25
2022-10-29T21:29:11.186Z,11.21
2022-10-29T21:31:37.823Z,11.19
2022-10-29T21:34:04.533Z,11.19
2022-10-29T21:36:31.154Z,11.18
2022-10-29T21:38:57.819Z,11.13
2022-10-29T21:41:24.538Z,11.11
2022-10-29T21:43:51.183Z,11.05
2022-10-29T21:46:17.939Z,11.04
2022-10-29T21:48:44.600Z,11.05
2022-10-29T21:51:12.809Z,11.00
2022-10-29T21:53:39.578Z,10.97
2022-10-29T21:56:08.352Z,10.90
2022-10-29T21:58:35.103Z,10.90
2022-10-29T22:01:07.747Z,10.89
2022-10-29T22:03:35.793Z,10.85
2022-10-29T22:06:08.114Z,10.86
2022-10-29T22:08:35.947Z,10.85
2022-10-29T22:11:03.169Z,10.81
2022-10-29T22:13:31.304Z,10.81
2022-10-29T22:15:58.352Z,10.75
2022-10-29T22:18:25.749Z,10.73
2022-10-29T22:21:05.521Z,10.70
2022-10-29T22:23:32.377Z,10.68
2022-10-29T22:25:59.065Z,10.67
2022-10-29T22:28:25.700Z,10.71
2022-10-29T22:31:03.454Z,10.68
2022-10-29T22:33:30.974Z,10.67
2022-10-29T22:36:04.286Z,10.63
2022-10-29T22:38:30.919Z,10.61
2022-10-29T22:40:57.579Z,10.65
2022-10-29T22:43:24.176Z,10.69
2022-10-29T22:45:50.769Z,10.65
2022-10-29T22:48:17.411Z,10.65
2022-10-29T22:50:44.009Z,10.63
2022-10-29T22:53:10.728Z,10.57
2022-10-29T22:55:37.370Z,10.57
2022-10-29T22:58:03.998Z,10.59
2022-10-29T23:00:30.606Z,10.60
2022-10-29T23:02:57.433Z,10.60
2022-10-29T23:05:24.215Z,10.55
2022-10-29T23:07:50.851Z,10.53
2022-10-29T23:10:17.523Z,10.55
2022-10-29T23:12:44.164Z,10.56
2022-10-29T23:15:10.954Z,10.54
2022-10-29T23:17:37.651Z,10.52
2022-10-29T23:20:04.526Z,10.46
2022-10-29T23:22:31.103Z,10.45
2022-10-29T23:24:57.708Z,10.40
2022-10-29T23:27:24.341Z,10.41
2022-10-29T23:29:50.973Z,10.40
2022-10-29T23:32:17.564Z,10.35
2022-10-29T23:34:44.211Z,10.37
2022-10-29T23:37:10.944Z,10.33
2022-10-29T23:39:37.548Z,10.29
2022-10-29T23:42:04.353Z,10.25
2022-10-29T23:44:30.946Z,10.23
2022-10-29T23:46:57.654Z,10.27
2022-10-29T23:49:24.240Z,10.25
2022-10-29T23:51:50.884Z,10.26
2022-10-29T23:54:17.459Z,10.23
2022-10-29T23:56:44.086Z,10.21
2022-10-29T23:59:10.693Z,10.23
